createdAt,value
2022-11-20T00:01:12.883Z,69.68
2022-11-20T00:03:40.164Z,69.95
2022-11-20T00:06:13.158Z,68.03
2022-11-20T00:08:40.931Z,59.13
2022-11-20T00:11:16.039Z,51.30
2022-11-20T00:13:45.015Z,49.30
2022-11-20T00:16:13.739Z,57.65
2022-11-20T00:18:40.730Z,61.25
2022-11-20T00:21:11.346Z,58.92
2022-11-20T00:23:38.168Z,56.13
2022-11-20T00:26:07.600Z,52.80
2022-11-20T00:28:34.543Z,53.42
2022-11-20T00:31:06.925Z,54.75
2022-11-20T00:33:34.160Z,54.25
2022-11-20T00:36:05.922Z,48.88
2022-11-20T00:41:01.816Z,47.80
2022-11-20T00:43:28.840Z,47.78
2022-11-20T00:46:03.901Z,50.88
2022-11-20T00:48:31.122Z,49.75
2022-11-20T00:50:58.710Z,47.75
2022-11-20T00:53:25.914Z,47.53
2022-11-20T00:56:01.260Z,45.92
2022-11-20T00:58:32.204Z,49.90
2022-11-20T01:01:06.935Z,45.28
2022-11-20T01:03:35.206Z,43.75
2022-11-20T01:06:04.000Z,42.83
2022-11-20T01:08:32.995Z,43.53
2022-11-20T01:11:04.738Z,50.80
2022-11-20T01:16:13.179Z,57.90
2022-11-20T01:21:11.228Z,61.95
2022-11-20T01:23:40.470Z,53.35
2022-11-20T01:26:09.848Z,61.80
2022-11-20T01:28:37.202Z,56.88
2022-11-20T01:31:25.578Z,52.58
2022-11-20T01:33:56.013Z,57.67
2022-11-20T01:36:24.785Z,55.65
2022-11-20T01:38:56.457Z,61.22
2022-11-20T01:41:43.162Z,59.28
2022-11-20T01:44:12.259Z,51.38
2022-11-20T01:46:43.502Z,70.07
2022-11-20T01:49:20.546Z,65.50
2022-11-20T01:51:57.717Z,62.05
2022-11-20T01:54:30.571Z,112.55
2022-11-20T01:57:00.122Z,79.93
2022-11-20T01:59:29.334Z,67.13
2022-11-20T02:01:56.501Z,60.28
2022-11-20T02:04:24.284Z,69.25
2022-11-20T02:07:02.277Z,64.40
2022-11-20T02:09:29.718Z,60.35
2022-11-20T02:11:57.019Z,71.38
2022-11-20T02:14:24.420Z,71.53
2022-11-20T02:16:51.802Z,68.95
2022-11-20T02:19:24.551Z,59.03
2022-11-20T02:22:12.722Z,64.20
2022-11-20T02:24:40.387Z,62.60
2022-11-20T02:27:11.021Z,70.32
2022-11-20T02:29:58.621Z,65.22
2022-11-20T02:32:30.354Z,60.65
2022-11-20T02:37:31.705Z,59.38
2022-11-20T02:39:58.671Z,60.30
2022-11-20T02:42:25.523Z,55.20
2022-11-20T02:44:52.278Z,60.97
2022-11-20T02:47:19.040Z,61.50
2022-11-20T02:49:45.819Z,53.65
2022-11-20T02:52:12.590Z,48.60
2022-11-20T02:54:39.381Z,64.43
2022-11-20T02:57:06.155Z,56.20
2022-11-20T02:59:32.892Z,62.25
2022-11-20T03:01:59.653Z,56.28
2022-11-20T03:04:26.399Z,52.75
2022-11-20T03:06:53.148Z,60.17
2022-11-20T03:09:20.151Z,59.13
2022-11-20T03:11:47.060Z,56.15
2022-11-20T03:14:13.926Z,57.08
2022-11-20T03:16:40.948Z,53.63
2022-11-20T03:19:08.218Z,62.95
2022-11-20T03:21:35.847Z,57.15
2022-11-20T03:24:03.584Z,56.70
2022-11-20T03:26:30.474Z,67.00
2022-11-20T03:28:59.959Z,61.22
2022-11-20T03:31:32.007Z,53.72
2022-11-20T03:33:59.786Z,60.15
2022-11-20T03:36:27.874Z,58.35
2022-11-20T03:38:56.088Z,55.35
2022-11-20T03:41:26.095Z,56.00
2022-11-20T03:44:01.551Z,54.38
2022-11-20T03:46:29.676Z,56.67
2022-11-20T03:48:57.168Z,59.80
2022-11-20T03:51:26.185Z,58.15
2022-11-20T03:53:55.949Z,59.53
2022-11-20T03:56:28.236Z,57.80
2022-11-20T03:58:55.665Z,58.50
2022-11-20T04:01:28.345Z,82.05
2022-11-20T04:03:56.450Z,68.40
2022-11-20T04:06:24.747Z,105.07
2022-11-20T04:08:54.026Z,54.60
2022-11-20T04:11:33.410Z,75.03
2022-11-20T04:14:02.184Z,196.32
2022-11-20T04:16:32.209Z,57.22
2022-11-20T04:19:00.850Z,73.50
2022-11-20T04:21:28.111Z,108.30
2022-11-20T04:23:55.898Z,116.03
2022-11-20T04:26:24.302Z,127.57
2022-11-20T04:28:51.696Z,97.22
2022-11-20T04:31:22.291Z,49.20
2022-11-20T04:33:49.301Z,64.47
2022-11-20T04:36:22.027Z,54.00
2022-11-20T04:38:57.251Z,96.53
2022-11-20T04:41:29.510Z,64.40
2022-11-20T04:44:00.787Z,54.05
2022-11-20T04:46:28.627Z,57.75
2022-11-20T04:48:55.674Z,71.72
2022-11-20T04:51:22.977Z,83.72
2022-11-20T04:53:50.078Z,48.53
2022-11-20T04:56:16.996Z,56.88
2022-11-20T04:58:43.939Z,48.65
2022-11-20T05:01:13.071Z,43.30
2022-11-20T05:03:44.359Z,48.22
2022-11-20T05:06:13.136Z,44.92
2022-11-20T05:08:40.474Z,47.00
2022-11-20T05:11:12.621Z,49.95
2022-11-20T05:13:40.341Z,47.58
2022-11-20T05:16:12.785Z,45.45
2022-11-20T05:18:40.611Z,44.55
2022-11-20T05:21:08.273Z,56.17
2022-11-20T05:23:35.859Z,42.45
2022-11-20T05:26:02.726Z,44.00
2022-11-20T05:28:30.907Z,45.90
2022-11-20T05:31:04.812Z,46.03
2022-11-20T05:33:31.630Z,41.55
2022-11-20T05:36:02.404Z,49.85
2022-11-20T05:38:29.226Z,60.72
2022-11-20T05:40:55.992Z,107.95
2022-11-20T05:43:22.851Z,74.28
2022-11-20T05:45:54.494Z,90.60
2022-11-20T05:48:21.944Z,51.53
2022-11-20T05:50:49.591Z,48.00
2022-11-20T05:53:16.427Z,49.17
2022-11-20T05:55:43.195Z,47.33
2022-11-20T05:58:09.986Z,47.70
2022-11-20T06:00:37.199Z,50.92
2022-11-20T06:03:04.119Z,79.82
2022-11-20T06:05:30.950Z,47.30
2022-11-20T06:07:57.712Z,44.75
2022-11-20T06:10:24.507Z,49.22
2022-11-20T06:12:51.289Z,83.53
2022-11-20T06:15:18.134Z,55.40
2022-11-20T06:17:44.881Z,60.25
2022-11-20T06:20:11.892Z,66.88
2022-11-20T06:22:38.658Z,49.22
2022-11-20T06:25:05.526Z,51.67
2022-11-20T06:27:32.310Z,51.42
2022-11-20T06:29:59.096Z,56.13
2022-11-20T06:32:25.872Z,56.25
2022-11-20T06:34:52.619Z,45.67
2022-11-20T06:37:19.384Z,81.05
2022-11-20T06:39:46.154Z,50.20
2022-11-20T06:42:13.009Z,82.75
2022-11-20T06:44:39.824Z,66.63
2022-11-20T06:47:06.702Z,50.22
2022-11-20T06:49:35.262Z,52.08
2022-11-20T06:52:02.030Z,48.95
2022-11-20T06:54:28.803Z,55.67
2022-11-20T06:56:55.539Z,67.88
2022-11-20T06:59:22.562Z,62.45
2022-11-20T07:01:49.569Z,51.30
2022-11-20T07:04:19.033Z,64.07
2022-11-20T07:06:45.810Z,86.53
2022-11-20T07:09:13.055Z,81.05
2022-11-20T07:11:39.983Z,86.07
2022-11-20T07:14:06.972Z,105.72
2022-11-20T07:16:33.801Z,106.45
2022-11-20T07:19:00.763Z,106.72
2022-11-20T07:21:27.691Z,246.88
2022-11-20T07:23:54.625Z,130.30
2022-11-20T07:26:21.640Z,114.45
2022-11-20T07:28:48.525Z,181.45
2022-11-20T07:31:19.091Z,218.75
2022-11-20T07:33:46.575Z,55.20
2022-11-20T07:36:13.383Z,48.15
2022-11-20T07:38:40.315Z,47.17
2022-11-20T07:41:07.273Z,113.10
2022-11-20T07:43:38.503Z,100.75
2022-11-20T07:46:08.101Z,125.63
2022-11-20T07:48:34.846Z,94.32
2022-11-20T07:51:08.819Z,46.70
2022-11-20T07:53:35.717Z,88.47
2022-11-20T07:56:27.713Z,126.93
2022-11-20T08:01:21.424Z,171.90
2022-11-20T08:03:48.251Z,83.88
2022-11-20T08:06:15.849Z,54.78
2022-11-20T08:08:43.228Z,97.07
2022-11-20T08:11:28.924Z,88.03
2022-11-20T08:14:14.243Z,66.05
2022-11-20T08:16:48.509Z,44.03
2022-11-20T08:19:16.802Z,91.78
2022-11-20T08:21:53.727Z,77.32
2022-11-20T08:24:20.598Z,44.47
2022-11-20T08:26:47.500Z,54.00
2022-11-20T08:29:14.279Z,55.50
2022-11-20T08:31:41.054Z,58.83
2022-11-20T08:34:09.524Z,82.25
2022-11-20T08:36:37.488Z,88.68
2022-11-20T08:39:04.469Z,70.50
2022-11-20T08:41:34.159Z,71.70
2022-11-20T08:44:07.815Z,51.10
2022-11-20T08:46:40.403Z,55.95
2022-11-20T08:49:11.885Z,62.83
2022-11-20T08:52:04.671Z,52.35
2022-11-20T08:54:31.484Z,62.05
2022-11-20T08:56:58.274Z,57.35
2022-11-20T08:59:50.925Z,54.55
2022-11-20T09:02:11.880Z,66.82
2022-11-20T09:04:38.684Z,75.97
2022-11-20T09:07:05.520Z,80.53
2022-11-20T09:09:32.360Z,60.40
2022-11-20T09:11:59.409Z,60.03
2022-11-20T09:14:30.079Z,45.00
2022-11-20T09:16:57.799Z,55.33
2022-11-20T09:19:35.387Z,50.58
2022-11-20T09:22:03.119Z,56.08
2022-11-20T09:24:30.049Z,53.75
2022-11-20T09:26:56.917Z,52.08
2022-11-20T09:29:23.866Z,58.35
2022-11-20T09:31:50.917Z,53.00
2022-11-20T09:34:17.755Z,48.78
2022-11-20T09:36:44.588Z,49.88
2022-11-20T09:39:11.337Z,49.95
2022-11-20T09:41:56.218Z,50.70
2022-11-20T09:44:32.311Z,51.05
2022-11-20T09:47:09.978Z,48.95
2022-11-20T09:50:14.352Z,50.10
2022-11-20T09:53:02.679Z,47.55
2022-11-20T09:55:31.840Z,64.70
2022-11-20T09:58:00.314Z,53.85
2022-11-20T10:00:29.322Z,47.40
2022-11-20T10:03:17.854Z,48.97
2022-11-20T10:05:55.426Z,44.13
2022-11-20T10:08:46.849Z,49.65
2022-11-20T10:11:36.429Z,41.25
2022-11-20T10:14:36.527Z,49.38
2022-11-20T10:17:52.942Z,40.90
2022-11-20T10:20:38.434Z,50.42
2022-11-20T10:23:49.896Z,40.10
2022-11-20T10:26:37.955Z,45.50
2022-11-20T10:29:10.434Z,41.47
2022-11-20T10:32:15.414Z,35.67
2022-11-20T10:34:42.137Z,34.42
2022-11-20T10:37:24.031Z,28.42
2022-11-20T10:42:49.433Z,27.50
2022-11-20T10:45:25.315Z,26.42
2022-11-20T10:48:15.888Z,25.58
2022-11-20T10:51:00.558Z,20.88
2022-11-20T10:53:38.232Z,20.40
2022-11-20T10:56:39.977Z,20.95
2022-11-20T10:59:12.906Z,22.30
2022-11-20T11:01:44.052Z,19.02
2022-11-20T11:04:29.319Z,18.20
2022-11-20T11:07:25.024Z,18.17
2022-11-20T11:09:54.560Z,20.95
2022-11-20T11:12:23.250Z,21.52
2022-11-20T11:14:53.091Z,17.80
2022-11-20T11:17:30.377Z,18.75
2022-11-20T11:20:11.327Z,17.98
2022-11-20T11:23:05.498Z,19.58
2022-11-20T11:25:34.943Z,21.65
2022-11-20T11:28:20.979Z,23.02
2022-11-20T11:30:50.262Z,21.70
2022-11-20T11:33:28.916Z,20.33
2022-11-20T11:35:59.498Z,17.88
2022-11-20T11:38:41.012Z,19.80
2022-11-20T11:41:28.793Z,21.13
2022-11-20T11:44:17.091Z,18.63
2022-11-20T11:46:58.898Z,18.83
2022-11-20T11:49:25.916Z,11.60
2022-11-20T11:52:17.737Z,9.13
2022-11-20T11:54:50.263Z,11.60
2022-11-20T11:57:34.967Z,10.70
2022-11-20T12:00:18.962Z,16.48
2022-11-20T12:02:45.704Z,10.65
2022-11-20T12:05:20.590Z,7.18
2022-11-20T12:08:12.828Z,7.50
2022-11-20T12:11:00.272Z,6.65
2022-11-20T12:13:57.366Z,9.95
2022-11-20T12:16:24.340Z,7.78
2022-11-20T12:18:53.486Z,7.72
2022-11-20T12:21:51.217Z,7.07
2022-11-20T12:24:37.868Z,9.55
2022-11-20T12:27:43.754Z,6.28
2022-11-20T12:30:12.380Z,5.70
2022-11-20T12:33:09.194Z,5.18
2022-11-20T12:36:08.682Z,4.50
2022-11-20T12:39:10.962Z,3.95
2022-11-20T12:45:01.696Z,5.65
2022-11-20T12:47:40.705Z,5.25
2022-11-20T12:50:15.740Z,3.50
2022-11-20T12:53:02.723Z,5.63
2022-11-20T12:55:55.638Z,4.45
2022-11-20T12:58:50.212Z,4.07
2022-11-20T13:01:51.447Z,5.43
2022-11-20T13:04:21.231Z,5.67
2022-11-20T13:06:49.059Z,5.70
2022-11-20T13:09:20.423Z,5.57
2022-11-20T13:11:59.068Z,5.30
2022-11-20T13:14:55.167Z,9.60
2022-11-20T13:17:29.460Z,6.63
2022-11-20T13:19:59.718Z,10.05
2022-11-20T13:22:46.868Z,7.45
2022-11-20T13:25:24.058Z,9.73
2022-11-20T13:27:51.553Z,5.80
2022-11-20T13:30:24.334Z,7.03
2022-11-20T13:33:05.563Z,6.50
2022-11-20T13:35:34.923Z,7.32
2022-11-20T13:38:15.775Z,6.22
2022-11-20T13:40:56.005Z,7.38
2022-11-20T13:43:29.368Z,6.88
2022-11-20T13:46:07.451Z,7.93
2022-11-20T13:48:45.928Z,8.52
2022-11-20T13:51:53.306Z,8.27
2022-11-20T13:54:41.199Z,7.50
2022-11-20T13:57:29.898Z,8.27
2022-11-20T14:00:14.169Z,7.68
2022-11-20T14:02:42.577Z,7.97
2022-11-20T14:05:22.969Z,8.95
2022-11-20T14:07:52.069Z,8.63
2022-11-20T14:10:31.673Z,7.78
2022-11-20T14:12:59.895Z,11.35
2022-11-20T14:15:28.596Z,9.18
2022-11-20T14:17:55.696Z,8.95
2022-11-20T14:20:27.035Z,9.00
2022-11-20T14:22:55.223Z,8.25
2022-11-20T14:25:28.324Z,10.00
2022-11-20T14:28:01.043Z,9.25
2022-11-20T14:30:44.342Z,11.18
2022-11-20T14:33:13.773Z,8.68
2022-11-20T14:35:52.961Z,11.40
2022-11-20T14:38:24.688Z,9.25
2022-11-20T14:40:52.006Z,7.60
2022-11-20T14:43:20.502Z,9.88
2022-11-20T14:45:58.481Z,9.77
2022-11-20T14:48:41.975Z,9.48
2022-11-20T14:51:12.976Z,9.98
2022-11-20T14:53:39.969Z,10.32
2022-11-20T14:56:06.954Z,7.85
2022-11-20T14:58:35.239Z,9.93
2022-11-20T15:01:05.109Z,10.85
2022-11-20T15:03:36.976Z,9.32
2022-11-20T15:06:05.628Z,12.32
2022-11-20T15:11:20.930Z,8.63
2022-11-20T15:13:48.013Z,9.82
2022-11-20T15:16:23.602Z,10.35
2022-11-20T15:18:50.886Z,10.77
2022-11-20T15:21:19.789Z,10.23
2022-11-20T15:23:46.730Z,9.57
2022-11-20T15:31:25.926Z,11.60
2022-11-20T15:33:53.043Z,10.50
2022-11-20T15:36:20.387Z,10.52
2022-11-20T15:38:47.588Z,11.40
2022-11-20T15:41:14.534Z,9.88
2022-11-20T15:43:41.438Z,11.48
2022-11-20T15:46:12.563Z,13.73
2022-11-20T15:48:48.982Z,14.90
2022-11-20T15:51:49.737Z,18.33
2022-11-20T15:54:23.007Z,19.83
2022-11-20T15:56:53.167Z,18.55
2022-11-20T15:59:20.140Z,17.02
2022-11-20T16:01:47.143Z,16.88
2022-11-20T16:04:16.767Z,16.77
2022-11-20T16:06:44.143Z,16.70
2022-11-20T16:09:11.364Z,19.42
2022-11-20T16:11:38.654Z,16.80
2022-11-20T16:14:25.775Z,14.45
2022-11-20T16:16:53.208Z,14.73
2022-11-20T16:19:20.288Z,14.25
2022-11-20T16:21:47.488Z,15.45
2022-11-20T16:24:15.653Z,15.52
2022-11-20T16:26:42.660Z,15.20
2022-11-20T16:29:11.145Z,16.73
2022-11-20T16:31:38.250Z,17.38
2022-11-20T16:34:11.789Z,16.25
2022-11-20T16:36:50.414Z,15.98
2022-11-20T16:39:23.052Z,16.88
2022-11-20T16:41:50.695Z,18.70
2022-11-20T16:44:17.808Z,23.52
2022-11-20T16:46:45.251Z,22.58
2022-11-20T16:49:15.791Z,15.60
2022-11-20T16:51:43.335Z,19.83
2022-11-20T16:54:13.062Z,19.45
2022-11-20T17:04:31.156Z,18.63
2022-11-20T17:06:58.185Z,16.95
2022-11-20T17:09:25.143Z,21.50
2022-11-20T17:11:52.048Z,19.42
2022-11-20T17:14:19.067Z,24.92
2022-11-20T17:16:46.282Z,27.73
2022-11-20T17:19:15.246Z,65.13
2022-11-20T17:21:42.410Z,330.23
2022-11-20T17:24:12.173Z,411.10
2022-11-20T17:26:41.240Z,304.10
2022-11-20T17:29:11.510Z,253.77
2022-11-20T17:31:39.605Z,59.00
2022-11-20T17:34:08.506Z,460.20
2022-11-20T17:36:35.374Z,430.60
2022-11-20T17:39:02.439Z,396.17
2022-11-20T17:41:30.316Z,500.73
2022-11-20T17:44:01.402Z,198.32
2022-11-20T17:46:32.775Z,430.08
2022-11-20T17:49:00.227Z,195.70
2022-11-20T17:51:29.678Z,195.70
2022-11-20T17:53:59.592Z,313.08
2022-11-20T17:56:45.726Z,296.02
2022-11-20T17:59:13.564Z,174.73
2022-11-20T18:01:43.255Z,286.75
2022-11-20T18:04:11.112Z,274.65
2022-11-20T18:06:38.363Z,279.80
2022-11-20T18:09:06.739Z,344.88
2022-11-20T18:11:38.920Z,259.83
2022-11-20T18:14:26.762Z,71.53
2022-11-20T18:16:56.009Z,198.20
2022-11-20T18:19:29.987Z,95.30
2022-11-20T18:22:01.475Z,55.88
2022-11-20T18:24:28.787Z,162.45
2022-11-20T18:26:55.797Z,243.98
2022-11-20T18:29:23.132Z,67.28
2022-11-20T18:31:50.611Z,121.55
2022-11-20T18:34:17.663Z,116.22
2022-11-20T18:36:45.513Z,302.17
2022-11-20T18:39:13.623Z,126.57
2022-11-20T18:42:00.242Z,314.58
2022-11-20T18:44:49.110Z,97.95
2022-11-20T18:47:30.499Z,232.27
2022-11-20T18:50:00.114Z,62.20
2022-11-20T18:52:30.013Z,114.18
2022-11-20T18:54:57.463Z,89.50
2022-11-20T18:57:27.174Z,78.03
2022-11-20T19:00:03.557Z,298.40
2022-11-20T19:02:37.914Z,76.40
2022-11-20T19:05:08.848Z,93.47
2022-11-20T19:07:35.830Z,83.03
2022-11-20T19:10:04.222Z,149.98
2022-11-20T19:12:31.789Z,202.57
2022-11-20T19:14:58.677Z,82.10
2022-11-20T19:17:25.575Z,173.23
2022-11-20T19:19:55.058Z,122.00
2022-11-20T19:22:22.454Z,284.77
2022-11-20T19:24:49.607Z,225.10
2022-11-20T19:27:16.563Z,275.95
2022-11-20T19:29:43.338Z,187.48
2022-11-20T19:32:10.135Z,144.65
2022-11-20T19:34:36.948Z,268.35
2022-11-20T19:37:04.197Z,106.18
2022-11-20T19:39:31.171Z,269.88
2022-11-20T19:41:58.047Z,303.42
2022-11-20T19:44:25.018Z,161.73
2022-11-20T19:46:52.064Z,113.03
2022-11-20T19:49:18.986Z,194.95
2022-11-20T19:51:51.135Z,245.35
2022-11-20T19:54:18.025Z,160.82
2022-11-20T19:56:45.722Z,73.22
2022-11-20T19:59:13.931Z,126.75
2022-11-20T20:01:40.915Z,441.35
2022-11-20T20:04:07.943Z,266.50
2022-11-20T20:06:36.629Z,468.98
2022-11-20T20:09:05.396Z,341.20
2022-11-20T20:11:34.290Z,249.98
2022-11-20T20:14:06.472Z,225.50
2022-11-20T20:16:35.266Z,281.98
2022-11-20T20:19:03.951Z,352.15
2022-11-20T20:21:32.229Z,180.38
2022-11-20T20:23:59.741Z,289.38
2022-11-20T20:26:53.278Z,144.23
2022-11-20T20:29:23.794Z,67.25
2022-11-20T20:31:50.626Z,139.40
2022-11-20T20:34:17.447Z,166.13
2022-11-20T20:36:44.325Z,150.77
2022-11-20T20:39:11.269Z,96.40
2022-11-20T20:41:38.023Z,115.82
2022-11-20T20:44:23.665Z,263.15
2022-11-20T20:46:53.219Z,192.63
2022-11-20T20:49:20.097Z,157.05
2022-11-20T20:51:46.971Z,458.35
2022-11-20T20:54:13.790Z,373.98
2022-11-20T20:56:40.534Z,442.70
2022-11-20T20:59:07.341Z,242.73
2022-11-20T21:01:34.556Z,98.35
2022-11-20T21:04:01.525Z,110.00
2022-11-20T21:06:28.342Z,114.72
2022-11-20T21:08:57.380Z,130.38
2022-11-20T21:11:24.427Z,108.40
2022-11-20T21:13:51.286Z,127.43
2022-11-20T21:16:20.818Z,112.22
2022-11-20T21:18:47.659Z,113.28
2022-11-20T21:21:34.774Z,112.40
2022-11-20T21:24:02.429Z,113.82
2022-11-20T21:26:29.522Z,112.80
2022-11-20T21:28:57.605Z,107.25
2022-11-20T21:31:26.637Z,109.43
2022-11-20T21:33:55.167Z,110.70
2022-11-20T21:36:25.577Z,102.38
2022-11-20T21:38:54.952Z,111.82
2022-11-20T21:41:22.707Z,109.13
2022-11-20T21:44:09.475Z,104.45
2022-11-20T21:46:40.783Z,109.53
2022-11-20T21:49:07.811Z,111.75
2022-11-20T21:51:34.577Z,107.82
2022-11-20T21:54:01.383Z,109.70
2022-11-20T21:56:28.448Z,94.82
2022-11-20T21:58:55.892Z,101.43
2022-11-20T22:01:28.563Z,106.15
2022-11-20T22:03:58.002Z,102.57
2022-11-20T22:06:27.069Z,101.00
2022-11-20T22:08:53.827Z,96.05
2022-11-20T22:11:21.979Z,105.38
2022-11-20T22:14:07.891Z,107.07
2022-11-20T22:16:35.861Z,101.28
2022-11-20T22:19:03.722Z,97.18
2022-11-20T22:21:31.367Z,101.15
2022-11-20T22:23:59.163Z,98.18
2022-11-20T22:26:28.826Z,92.85
2022-11-20T22:28:57.983Z,103.72
2022-11-20T22:31:27.558Z,97.30
2022-11-20T22:33:55.146Z,97.70
2022-11-20T22:36:24.708Z,100.10
2022-11-20T22:38:52.261Z,93.18
2022-11-20T22:41:22.218Z,104.95
2022-11-20T22:43:54.991Z,93.25
2022-11-20T22:46:21.977Z,103.32
2022-11-20T22:49:15.232Z,105.28
2022-11-20T22:51:42.290Z,90.50
2022-11-20T22:54:12.782Z,91.70
2022-11-20T22:56:40.227Z,86.63
2022-11-20T22:59:06.997Z,92.65
2022-11-20T23:01:36.702Z,91.15
2022-11-20T23:04:06.135Z,143.68
2022-11-20T23:06:34.474Z,82.03
2022-11-20T23:09:05.510Z,84.13
2022-11-20T23:11:33.130Z,81.25
2022-11-20T23:14:00.861Z,73.57
2022-11-20T23:16:29.257Z,67.40
2022-11-20T23:18:58.079Z,70.28
2022-11-20T23:21:25.600Z,85.47
2022-11-20T23:23:54.588Z,74.93
2022-11-20T23:26:23.409Z,64.75
2022-11-20T23:28:50.527Z,62.08
2022-11-20T23:31:17.528Z,59.72
2022-11-20T23:33:45.900Z,60.15
2022-11-20T23:36:14.039Z,56.35
2022-11-20T23:38:41.041Z,57.08
2022-11-20T23:41:08.107Z,61.67
2022-11-20T23:43:35.347Z,55.35
2022-11-20T23:46:03.676Z,53.80
2022-11-20T23:48:35.834Z,54.15
2022-11-20T23:51:03.617Z,56.35
2022-11-20T23:53:30.423Z,59.13
2022-11-20T23:55:59.787Z,57.03
2022-11-20T23:58:36.954Z,57.47
